createdAt,value
2022-07-25T00:00:42.078Z,100039.53
2022-07-25T00:05:43.520Z,100039.78
2022-07-25T00:10:44.950Z,100037.88
2022-07-25T00:15:46.395Z,100032.94
2022-07-25T00:20:47.829Z,100031.28
2022-07-25T00:25:49.250Z,100025.22
2022-07-25T00:30:50.761Z,100014.75
2022-07-25T00:35:52.220Z,100010.94
2022-07-25T00:40:55.476Z,100011.47
2022-07-25T00:45:58.588Z,100012.78
2022-07-25T00:51:00.986Z,100014.47
2022-07-25T00:56:03.881Z,100012.00
2022-07-25T01:01:05.370Z,100002.06
2022-07-25T01:06:06.917Z,99999.59
2022-07-25T01:11:08.333Z,99998.19
2022-07-25T01:16:09.782Z,99995.72
2022-07-25T01:21:11.205Z,99988.88
2022-07-25T01:26:12.623Z,99977.84
2022-07-25T01:31:14.091Z,99982.22
2022-07-25T01:36:15.513Z,99966.00
2022-07-25T01:41:22.687Z,99967.38
2022-07-25T01:46:24.304Z,99956.41
2022-07-25T01:51:26.439Z,99955.81
2022-07-25T01:56:27.962Z,99956.91
2022-07-25T02:01:33.231Z,99956.91
2022-07-25T02:06:35.124Z,99957.19
2022-07-25T02:11:36.609Z,99952.78
2022-07-25T02:16:38.068Z,99946.47
2022-07-25T02:21:39.559Z,99945.63
2022-07-25T02:26:40.960Z,99940.41
2022-07-25T02:31:42.439Z,99943.72
2022-07-25T02:36:44.066Z,99940.69
2022-07-25T02:41:45.515Z,99939.03
2022-07-25T02:46:46.916Z,99929.13
2022-07-25T02:51:48.389Z,99929.09
2022-07-25T02:56:49.792Z,99927.22
2022-07-25T03:01:51.235Z,99922.25
2022-07-25T03:06:52.666Z,99915.63
2022-07-25T03:11:54.129Z,99920.59
2022-07-25T03:16:55.586Z,99915.09
2022-07-25T03:21:57.070Z,99904.63
2022-07-25T03:26:58.495Z,99910.97
2022-07-25T03:32:00.459Z,99912.06
2022-07-25T03:37:02.130Z,99909.03
2022-07-25T03:42:03.684Z,99899.41
2022-07-25T03:47:05.515Z,99898.31
2022-07-25T03:52:06.942Z,99886.19
2022-07-25T03:57:08.397Z,99904.91
2022-07-25T04:02:09.922Z,99883.72
2022-07-25T04:07:11.442Z,99884.00
2022-07-25T04:12:12.855Z,99880.69
2022-07-25T04:17:14.341Z,99871.91
2022-07-25T04:22:15.893Z,99861.72
2022-07-25T04:27:17.306Z,99865.31
2022-07-25T04:32:23.301Z,99847.97
2022-07-25T04:37:25.279Z,99839.69
2022-07-25T04:42:27.761Z,99837.50
2022-07-25T04:47:29.646Z,99831.19
2022-07-25T04:52:31.046Z,99821.81
2022-07-25T04:57:32.457Z,99813.84
2022-07-25T05:02:34.239Z,99813.31
2022-07-25T05:07:36.319Z,99814.91
2022-07-25T05:12:37.756Z,99809.44
2022-07-25T05:17:39.203Z,99803.34
2022-07-25T05:22:40.707Z,99803.09
2022-07-25T05:27:42.131Z,99802.25
2022-07-25T05:32:43.597Z,99799.50
2022-07-25T05:37:45.015Z,99788.50
2022-07-25T05:42:46.468Z,99792.09
2022-07-25T05:47:48.404Z,99780.53
2022-07-25T05:52:49.956Z,99779.72
2022-07-25T05:57:51.362Z,99778.34
2022-07-25T06:02:52.950Z,99772.28
2022-07-25T06:07:54.427Z,99771.47
2022-07-25T06:12:55.849Z,99762.63
2022-07-25T06:17:57.258Z,99762.09
2022-07-25T06:22:58.846Z,99764.03
2022-07-25T06:28:00.963Z,99754.97
2022-07-25T06:33:02.373Z,99757.69
2022-07-25T06:38:04.293Z,99750.53
2022-07-25T06:43:05.810Z,99750.56
2022-07-25T06:48:07.219Z,99737.34
2022-07-25T06:53:08.695Z,99737.63
2022-07-25T06:58:10.105Z,99728.25
2022-07-25T07:03:11.566Z,99720.28
2022-07-25T07:08:12.998Z,99704.88
2022-07-25T07:13:15.225Z,99709.31
2022-07-25T07:18:20.049Z,99706.25
2022-07-25T07:23:21.492Z,99706.00
2022-07-25T07:28:22.918Z,99698.22
2022-07-25T07:33:24.321Z,99702.94
2022-07-25T07:38:25.827Z,99693.03
2022-07-25T07:43:30.055Z,99681.72
2022-07-25T07:48:32.281Z,99680.09
2022-07-25T07:53:52.353Z,99678.97
2022-07-25T07:58:53.821Z,99685.31
2022-07-25T08:03:55.233Z,99678.13
2022-07-25T08:08:56.642Z,99670.72
2022-07-25T08:13:58.065Z,99679.78
2022-07-25T08:18:59.481Z,99678.69
2022-07-25T08:24:00.911Z,99674.59
2022-07-25T08:29:18.056Z,99677.03
2022-07-25T08:34:22.402Z,99672.03
2022-07-25T08:39:24.084Z,99669.28
2022-07-25T08:44:26.897Z,99657.69
2022-07-25T08:49:28.840Z,99657.44
2022-07-25T08:54:31.070Z,99653.81
2022-07-25T08:59:32.502Z,99645.06
2022-07-25T09:04:35.268Z,99640.91
2022-07-25T09:09:38.425Z,99647.25
2022-07-25T09:14:43.242Z,99630.06
2022-07-25T09:19:54.814Z,99625.41
2022-07-25T09:24:56.284Z,99635.03
2022-07-25T09:29:57.692Z,99626.47
2022-07-25T09:34:59.106Z,99617.06
2022-07-25T09:40:00.611Z,99620.31
2022-07-25T09:45:15.151Z,99620.47
2022-07-25T09:50:16.914Z,99609.16
2022-07-25T09:55:20.003Z,99613.00
2022-07-25T10:00:23.959Z,99602.53
2022-07-25T10:05:43.638Z,99594.84
2022-07-25T10:10:45.101Z,99596.25
2022-07-25T10:15:48.664Z,99578.91
2022-07-25T10:20:51.509Z,99577.84
2022-07-25T10:26:16.154Z,99571.25
2022-07-25T10:31:26.731Z,99557.53
2022-07-25T10:36:41.975Z,99559.19
2022-07-25T10:41:48.946Z,99552.31
2022-07-25T10:46:50.455Z,99558.94
2022-07-25T10:52:03.095Z,99538.28
2022-07-25T10:57:05.872Z,99533.31
2022-07-25T11:02:09.326Z,99515.16
2022-07-25T11:07:12.259Z,99517.38
2022-07-25T11:12:16.797Z,99508.72
2022-07-25T11:17:20.117Z,99505.13
2022-07-25T11:22:21.576Z,99501.25
2022-07-25T11:27:23.847Z,99506.94
2022-07-25T11:32:25.260Z,99492.75
2022-07-25T11:37:26.694Z,99481.44
2022-07-25T11:42:28.539Z,99480.84
2022-07-25T11:47:33.146Z,99463.78
2022-07-25T11:52:36.457Z,99460.72
2022-07-25T11:57:40.042Z,99447.47
2022-07-25T12:02:41.536Z,99441.50
2022-07-25T12:07:47.122Z,99440.38
2022-07-25T12:12:55.581Z,99440.00
2022-07-25T12:17:57.707Z,99435.25
2022-07-25T12:23:02.997Z,99436.66
2022-07-25T12:28:04.894Z,99420.25
2022-07-25T12:33:06.377Z,99413.53
2022-07-25T12:38:08.273Z,99408.09
2022-07-25T12:43:09.954Z,99396.84
2022-07-25T12:48:12.686Z,99402.88
2022-07-25T12:53:14.178Z,99400.28
2022-07-25T12:58:15.590Z,99388.84
2022-07-25T13:03:17.808Z,99384.03
2022-07-25T13:08:19.254Z,99373.66
2022-07-25T13:13:20.654Z,99360.25
2022-07-25T13:18:22.065Z,99359.13
2022-07-25T13:23:23.552Z,99342.84
2022-07-25T13:28:24.962Z,99346.28
2022-07-25T13:33:26.402Z,99335.72
2022-07-25T13:38:27.809Z,99328.66
2022-07-25T13:43:29.238Z,99322.16
2022-07-25T13:48:31.473Z,99315.22
2022-07-25T13:53:33.200Z,99310.81
2022-07-25T13:58:34.729Z,99304.47
2022-07-25T14:03:37.246Z,99293.31
2022-07-25T14:08:41.694Z,99281.75
2022-07-25T14:13:44.227Z,99277.78
2022-07-25T14:18:45.653Z,99278.53
2022-07-25T14:23:47.085Z,99273.94
2022-07-25T14:28:48.601Z,99263.06
2022-07-25T14:33:50.303Z,99253.88
2022-07-25T14:38:51.756Z,99261.22
2022-07-25T14:43:53.975Z,99256.22
2022-07-25T14:48:55.496Z,99242.72
2022-07-25T14:53:57.405Z,99227.31
2022-07-25T14:58:58.858Z,99230.56
2022-07-25T15:04:00.270Z,99210.66
2022-07-25T15:09:01.717Z,99207.88
2022-07-25T15:14:03.245Z,99196.94
2022-07-25T15:19:16.408Z,99186.63
2022-07-25T15:24:18.391Z,99185.50
2022-07-25T15:29:20.630Z,99181.94
2022-07-25T15:34:22.048Z,99172.34
2022-07-25T15:39:23.538Z,99172.50
2022-07-25T15:44:25.429Z,99164.66
2022-07-25T15:49:26.862Z,99158.81
2022-07-25T15:54:29.628Z,99151.25
2022-07-25T15:59:31.181Z,99147.97
2022-07-25T16:04:32.609Z,99134.59
2022-07-25T16:09:34.213Z,99129.25
2022-07-25T16:14:35.625Z,99128.34
2022-07-25T16:19:37.049Z,99119.47
2022-07-25T16:24:38.566Z,99113.50
2022-07-25T16:29:39.980Z,99107.16
2022-07-25T16:34:41.604Z,99098.06
2022-07-25T16:39:43.013Z,99082.22
2022-07-25T16:44:44.422Z,99078.47
2022-07-25T16:49:45.830Z,99075.59
2022-07-25T16:54:47.240Z,99058.03
2022-07-25T16:59:48.734Z,99055.38
2022-07-25T17:04:50.300Z,99050.78
2022-07-25T17:09:51.749Z,99044.44
2022-07-25T17:14:53.698Z,99042.50
2022-07-25T17:19:59.579Z,99044.75
2022-07-25T17:25:01.603Z,99042.09
2022-07-25T17:30:04.297Z,99043.50
2022-07-25T17:35:05.826Z,99049.03
2022-07-25T17:40:08.309Z,99054.75
2022-07-25T17:45:10.490Z,99048.63
2022-07-25T17:50:12.031Z,99051.78
2022-07-25T17:55:13.535Z,99051.69
2022-07-25T18:00:15.171Z,99049.34
2022-07-25T18:05:17.148Z,99049.44
2022-07-25T18:10:20.979Z,99099.84
2022-07-25T18:15:22.393Z,99175.59
2022-07-25T18:20:24.130Z,99204.22
2022-07-25T18:25:25.653Z,99212.84
2022-07-25T18:30:29.303Z,99223.59
2022-07-25T18:35:30.889Z,99198.47
2022-07-25T18:40:32.289Z,99191.53
2022-07-25T18:45:36.225Z,99198.78
2022-07-25T18:50:37.934Z,99204.44
2022-07-25T18:55:39.357Z,99225.81
2022-07-25T19:00:40.771Z,99214.00
2022-07-25T19:05:42.655Z,99234.25
2022-07-25T19:10:44.084Z,99225.81
2022-07-25T19:15:45.537Z,99237.97
2022-07-25T19:20:47.020Z,99241.59
2022-07-25T19:25:49.029Z,99237.44
2022-07-25T19:30:50.497Z,99235.94
2022-07-25T19:35:52.337Z,99227.22
2022-07-25T19:40:54.059Z,99219.50
2022-07-25T19:45:55.563Z,99228.06
2022-07-25T19:50:57.078Z,99246.84
2022-07-25T19:55:58.492Z,99276.00
2022-07-25T20:00:59.964Z,99264.78
2022-07-25T20:06:06.060Z,99259.56
2022-07-25T20:11:09.400Z,99270.91
2022-07-25T20:16:10.985Z,99287.44
2022-07-25T20:21:12.420Z,99228.66
2022-07-25T20:26:13.932Z,99212.63
2022-07-25T20:31:16.567Z,99215.69
2022-07-25T20:36:18.232Z,99219.66
2022-07-25T20:41:19.701Z,99246.84
2022-07-25T20:46:21.165Z,99237.50
2022-07-25T20:51:22.660Z,99245.19
2022-07-25T20:56:24.074Z,99233.88
2022-07-25T21:01:25.539Z,99241.00
2022-07-25T21:06:27.523Z,99233.06
2022-07-25T21:11:28.986Z,99226.22
2022-07-25T21:16:30.470Z,99216.28
2022-07-25T21:21:31.918Z,99238.94
2022-07-25T21:26:33.378Z,99248.25
2022-07-25T21:31:34.874Z,99253.53
2022-07-25T21:36:36.541Z,99237.81
2022-07-25T21:41:37.973Z,99252.44
2022-07-25T21:46:39.377Z,99234.53
2022-07-25T21:51:41.252Z,99239.25
2022-07-25T21:56:44.412Z,99251.38
2022-07-25T22:01:45.890Z,99264.91
2022-07-25T22:06:47.326Z,99271.16
2022-07-25T22:11:48.761Z,99263.06
2022-07-25T22:16:50.286Z,99258.22
2022-07-25T22:21:51.713Z,99251.97
2022-07-25T22:26:53.378Z,99262.84
2022-07-25T22:31:54.878Z,99284.72
2022-07-25T22:36:56.722Z,99324.13
2022-07-25T22:41:58.185Z,99325.53
2022-07-25T22:46:59.603Z,99329.03
2022-07-25T22:52:01.021Z,99334.47
2022-07-25T22:57:02.584Z,99362.25
2022-07-25T23:02:04.005Z,99359.84
2022-07-25T23:07:05.419Z,99369.75
2022-07-25T23:12:07.077Z,99374.25
2022-07-25T23:17:17.197Z,99384.13
2022-07-25T23:22:18.919Z,99414.50
2022-07-25T23:27:20.363Z,99425.16
2022-07-25T23:32:21.777Z,99450.13
2022-07-25T23:37:23.187Z,99479.72
2022-07-25T23:42:24.598Z,99493.97
2022-07-25T23:47:28.498Z,99494.84
2022-07-25T23:52:41.103Z,99504.19
2022-07-25T23:57:43.006Z,99516.94
